Time;durP1;ratioP1;P1;durP2;ratioP2;P2;SDS_P1;SDS_P2;PMS_P1;PMS_P2;Temp;Humidity;BMP_temperature;BMP_pressure;BME280_temperature;BME280_humidity;BME280_pressure;Samples;Min_cycle;Max_cycle;Signal;HPM_P1;HPM_P2
2023/09/19 00:01:23;;;;;;;2.70;0.80;;;15.10;99.90;;;;;;5023414;28;20058;-69
2023/09/19 00:03:49;;;;;;;4.55;0.65;;;15.10;99.90;;;;;;5014825;28;20037;-70
2023/09/19 00:06:15;;;;;;;2.47;0.52;;;15.00;99.90;;;;;;5021768;28;20056;-70
2023/09/19 00:08:44;;;;;;;2.45;0.60;;;15.00;99.90;;;;;;5005551;28;20042;-70
2023/09/19 00:11:10;;;;;;;2.53;0.40;;;15.00;99.90;;;;;;5024105;28;20042;-69
2023/09/19 00:13:36;;;;;;;3.58;0.50;;;14.90;99.90;;;;;;5026157;28;20125;-70
2023/09/19 00:16:10;;;;;;;1.15;0.50;;;14.90;99.90;;;;;;5027367;28;20136;-70
2023/09/19 00:18:36;;;;;;;5.25;0.70;;;14.80;99.90;;;;;;5022868;28;20502;-70
2023/09/19 00:21:04;;;;;;;5.47;0.75;;;14.80;99.90;;;;;;5022464;28;20064;-70
2023/09/19 00:23:31;;;;;;;3.88;0.50;;;14.80;99.90;;;;;;5022294;28;20521;-70
2023/09/19 00:26:00;;;;;;;2.70;0.77;;;14.70;99.90;;;;;;5004457;28;20167;-70
2023/09/19 00:28:27;;;;;;;2.28;0.68;;;14.70;99.90;;;;;;5031109;28;20541;-70
2023/09/19 00:30:55;;;;;;;3.13;0.70;;;14.70;99.90;;;;;;5022516;28;20057;-70
2023/09/19 00:33:21;;;;;;;3.05;0.68;;;14.70;99.90;;;;;;5032709;28;20052;-69
2023/09/19 00:35:54;;;;;;;0.90;0.30;;;14.60;99.90;;;;;;5021664;28;20042;-70
2023/09/19 00:38:22;;;;;;;3.20;0.55;;;14.60;99.90;;;;;;5025157;28;20490;-70
2023/09/19 00:40:50;;;;;;;2.13;0.60;;;14.60;99.90;;;;;;5008133;28;20518;-70
2023/09/19 00:43:16;;;;;;;4.32;0.70;;;14.50;99.90;;;;;;5021958;28;20041;-70
2023/09/19 00:45:48;;;;;;;2.58;0.50;;;14.50;99.90;;;;;;5021453;28;20526;-70
2023/09/19 00:48:16;;;;;;;3.65;0.63;;;14.50;99.90;;;;;;5022464;28;20072;-70
2023/09/19 00:50:43;;;;;;;3.63;0.50;;;14.40;99.90;;;;;;5024470;28;20128;-70
2023/09/19 00:53:13;;;;;;;3.13;0.50;;;14.40;99.90;;;;;;5021864;28;20052;-70
2023/09/19 00:55:40;;;;;;;5.35;1.20;;;14.40;99.90;;;;;;5025022;28;20061;-70
2023/09/19 00:58:06;;;;;;;2.22;0.70;;;14.40;99.90;;;;;;5022608;28;20080;-70
2023/09/19 01:00:33;;;;;;;6.07;0.60;;;14.30;99.90;;;;;;5033358;28;20045;-70
2023/09/19 01:03:01;;;;;;;3.50;0.80;;;14.30;99.90;;;;;;5023079;28;20141;-70
2023/09/19 01:05:28;;;;;;;2.80;0.63;;;14.30;99.90;;;;;;5022803;28;20049;-69
2023/09/19 01:07:53;;;;;;;2.15;0.60;;;14.30;99.90;;;;;;5021796;28;20049;-70
2023/09/19 01:10:20;;;;;;;2.63;0.60;;;14.30;99.90;;;;;;5022742;28;20040;-70
2023/09/19 01:13:11;;;;;;;2.95;0.98;;;14.30;99.90;;;;;;5026425;28;20107;-70
2023/09/19 01:15:40;;;;;;;3.95;0.57;;;14.30;99.90;;;;;;5024681;28;20037;-69
2023/09/19 01:18:08;;;;;;;4.70;0.80;;;14.30;99.90;;;;;;5022830;28;20041;-70
2023/09/19 01:21:07;;;;;;;3.47;0.75;;;14.30;99.90;;;;;;5021934;28;20041;-70
2023/09/19 01:23:47;;;;;;;4.28;0.65;;;14.30;99.90;;;;;;5021385;28;20033;-69
2023/09/19 01:26:35;;;;;;;2.83;0.63;;;14.30;99.90;;;;;;5021512;28;20132;-70
2023/09/19 01:29:34;;;;;;;1.70;0.60;;;14.30;99.90;;;;;;5027567;28;20063;-70
2023/09/19 01:32:04;;;;;;;2.97;0.63;;;14.20;99.90;;;;;;5022465;28;20379;-70
2023/09/19 01:34:47;;;;;;;1.63;0.60;;;14.20;99.90;;;;;;5024802;28;20092;-70
2023/09/19 01:37:14;;;;;;;3.45;0.60;;;14.20;99.90;;;;;;5027955;28;20111;-70
2023/09/19 01:39:41;;;;;;;2.00;0.52;;;14.20;99.90;;;;;;5038189;28;20143;-69
2023/09/19 01:42:24;;;;;;;4.80;0.77;;;14.20;99.90;;;;;;5016839;28;20037;-69
2023/09/19 01:45:12;;;;;;;1.30;0.47;;;14.20;99.90;;;;;;5030198;28;20183;-70
2023/09/19 01:47:51;;;;;;;4.55;0.90;;;14.20;99.90;;;;;;5032286;28;20414;-70
2023/09/19 01:50:40;;;;;;;2.88;0.50;;;14.20;99.90;;;;;;5030004;28;20473;-70
2023/09/19 01:53:30;;;;;;;9.45;0.77;;;14.10;99.90;;;;;;5021647;28;20048;-70
2023/09/19 01:55:57;;;;;;;2.30;0.52;;;14.10;99.90;;;;;;5019275;28;20037;-70
2023/09/19 01:58:48;;;;;;;2.38;0.73;;;14.10;99.90;;;;;;5019797;28;20068;-70
2023/09/19 02:01:19;;;;;;;2.95;0.60;;;14.10;99.90;;;;;;5006744;28;20626;-70
2023/09/19 02:03:48;;;;;;;3.50;1.17;;;14.10;99.90;;;;;;5004489;28;20113;-70
2023/09/19 02:06:15;;;;;;;3.13;0.57;;;14.00;99.90;;;;;;5019920;28;20403;-70
2023/09/19 02:08:41;;;;;;;5.05;0.90;;;14.10;99.90;;;;;;5005422;28;20325;-70
2023/09/19 02:11:06;;;;;;;2.90;0.75;;;14.00;99.90;;;;;;5022035;28;20267;-69
2023/09/19 02:13:32;;;;;;;5.28;0.77;;;14.00;99.90;;;;;;5004007;28;20045;-69
2023/09/19 02:15:59;;;;;;;3.60;0.80;;;14.00;99.90;;;;;;5042390;28;20459;-70
2023/09/19 02:18:24;;;;;;;6.00;0.93;;;14.00;99.90;;;;;;5021135;28;20092;-70
2023/09/19 02:20:51;;;;;;;1.92;0.85;;;14.00;99.90;;;;;;5021714;28;20076;-70
2023/09/19 02:23:16;;;;;;;5.03;0.70;;;14.00;99.90;;;;;;5021108;28;20069;-70
2023/09/19 02:25:44;;;;;;;5.18;0.98;;;14.00;99.90;;;;;;5022044;28;20080;-70
2023/09/19 02:28:10;;;;;;;6.00;0.93;;;13.90;99.90;;;;;;5003473;28;20046;-70
2023/09/19 02:30:36;;;;;;;6.65;1.00;;;13.90;99.90;;;;;;5020421;28;20037;-70
2023/09/19 02:33:03;;;;;;;2.88;0.77;;;13.90;99.90;;;;;;5006901;28;20136;-70
2023/09/19 02:35:32;;;;;;;4.10;1.50;;;13.90;99.90;;;;;;5040448;28;20049;-70
2023/09/19 02:37:58;;;;;;;1.98;0.73;;;13.90;99.90;;;;;;5021304;28;20033;-70
2023/09/19 02:40:25;;;;;;;2.15;0.65;;;13.90;99.90;;;;;;5005418;28;20033;-70
2023/09/19 02:42:54;;;;;;;1.20;0.77;;;13.90;99.90;;;;;;5004445;28;20033;-70
2023/09/19 02:45:20;;;;;;;4.22;0.75;;;13.80;99.90;;;;;;5020907;28;20479;-70
2023/09/19 02:47:47;;;;;;;4.97;0.82;;;13.80;99.90;;;;;;5022523;28;20041;-70
2023/09/19 02:50:16;;;;;;;3.92;0.90;;;13.80;99.90;;;;;;5005505;28;20049;-70
2023/09/19 02:52:48;;;;;;;5.25;1.10;;;13.80;99.90;;;;;;5020838;28;20562;-70
2023/09/19 02:55:17;;;;;;;2.33;0.60;;;13.80;99.90;;;;;;5016496;28;20430;-70
2023/09/19 02:57:49;;;;;;;5.78;0.90;;;13.70;99.90;;;;;;5007240;28;20801;-70
2023/09/19 03:00:20;;;;;;;2.67;0.90;;;13.80;99.90;;;;;;5019505;28;20041;-70
2023/09/19 03:02:46;;;;;;;5.35;1.23;;;13.70;99.90;;;;;;5023551;28;20049;-70
2023/09/19 03:05:12;;;;;;;1.63;0.50;;;13.70;99.90;;;;;;5023928;28;20044;-70
2023/09/19 03:07:38;;;;;;;2.53;0.80;;;13.70;99.90;;;;;;5019185;28;20048;-70
2023/09/19 03:10:05;;;;;;;1.40;0.60;;;13.70;99.90;;;;;;5017996;28;20056;-70
2023/09/19 03:12:31;;;;;;;2.90;0.90;;;13.70;99.90;;;;;;5002075;28;20593;-70
2023/09/19 03:14:57;;;;;;;4.10;0.65;;;13.70;99.90;;;;;;5020181;28;20042;-70
2023/09/19 03:17:23;;;;;;;2.42;0.88;;;13.70;99.90;;;;;;5024895;28;20037;-70
2023/09/19 03:19:48;;;;;;;3.17;0.50;;;13.70;99.90;;;;;;5005577;28;20583;-70
2023/09/19 03:22:14;;;;;;;3.45;0.88;;;13.80;99.90;;;;;;5020848;28;20125;-70
2023/09/19 03:24:41;;;;;;;2.85;0.60;;;13.80;99.90;;;;;;5022230;28;20045;-70
2023/09/19 03:27:10;;;;;;;6.97;0.70;;;13.80;99.90;;;;;;5023719;28;20494;-70
2023/09/19 03:29:35;;;;;;;3.72;1.15;;;13.70;99.90;;;;;;5007533;28;20069;-70
2023/09/19 03:32:01;;;;;;;3.40;0.85;;;13.70;99.90;;;;;;5022990;28;20124;-70
2023/09/19 03:34:27;;;;;;;5.00;0.80;;;13.80;99.90;;;;;;5021195;28;20049;-70
2023/09/19 03:36:53;;;;;;;4.70;0.77;;;13.80;99.90;;;;;;5021976;28;20041;-70
2023/09/19 03:39:19;;;;;;;7.78;1.10;;;13.80;99.90;;;;;;5023428;28;20436;-70
2023/09/19 03:41:45;;;;;;;2.67;0.52;;;13.80;99.90;;;;;;5023278;28;20611;-70
2023/09/19 03:44:10;;;;;;;3.10;0.60;;;13.70;99.90;;;;;;5022280;28;20022;-70
2023/09/19 03:46:36;;;;;;;4.07;0.70;;;13.80;99.90;;;;;;5006645;28;20115;-70
2023/09/19 03:49:02;;;;;;;2.25;0.60;;;13.80;99.90;;;;;;5028265;28;20049;-70
2023/09/19 03:51:28;;;;;;;3.95;0.88;;;13.80;99.90;;;;;;5023846;28;20075;-70
2023/09/19 03:53:53;;;;;;;4.85;0.90;;;13.80;99.90;;;;;;5021072;28;20057;-70
2023/09/19 03:56:19;;;;;;;3.13;0.57;;;13.80;99.90;;;;;;5018914;28;20124;-70
2023/09/19 03:58:45;;;;;;;2.28;0.50;;;13.80;99.90;;;;;;5021945;28;20037;-70
2023/09/19 04:01:10;;;;;;;4.75;0.95;;;13.80;99.90;;;;;;5005846;28;20033;-70
2023/09/19 04:03:46;;;;;;;2.42;0.88;;;13.80;99.90;;;;;;5007170;28;20068;-70
2023/09/19 04:06:16;;;;;;;3.88;0.68;;;13.80;99.90;;;;;;5020253;28;20522;-70
2023/09/19 04:08:42;;;;;;;3.10;0.50;;;13.80;99.90;;;;;;5020894;28;20041;-70
2023/09/19 04:11:08;;;;;;;1.38;0.55;;;13.80;99.90;;;;;;5021794;28;20042;-70
2023/09/19 04:13:34;;;;;;;2.90;0.70;;;13.80;99.90;;;;;;5021120;28;20041;-70
2023/09/19 04:15:59;;;;;;;2.00;0.60;;;13.70;99.90;;;;;;5021540;28;20096;-70
2023/09/19 04:18:25;;;;;;;3.55;0.60;;;13.70;99.90;;;;;;5021314;28;20572;-70
2023/09/19 04:20:51;;;;;;;3.10;0.65;;;13.70;99.90;;;;;;5021402;28;20573;-70
2023/09/19 04:23:16;;;;;;;2.25;0.77;;;13.70;99.90;;;;;;5005603;28;20042;-70
2023/09/19 04:25:43;;;;;;;3.13;0.90;;;13.80;99.90;;;;;;5019229;28;20042;-71
2023/09/19 04:28:10;;;;;;;1.73;0.57;;;13.80;99.90;;;;;;5021231;28;20398;-70
2023/09/19 04:30:37;;;;;;;3.50;0.52;;;13.80;99.90;;;;;;5021677;28;20555;-70
2023/09/19 04:33:03;;;;;;;3.05;0.90;;;13.90;99.90;;;;;;5004221;28;20061;-70
2023/09/19 04:35:31;;;;;;;3.40;0.80;;;13.90;99.90;;;;;;5020825;28;20576;-70
2023/09/19 04:37:57;;;;;;;3.80;0.82;;;13.90;99.90;;;;;;5019219;28;20422;-70
2023/09/19 04:40:24;;;;;;;5.80;0.80;;;14.00;99.90;;;;;;5033936;28;20040;-70
2023/09/19 04:42:56;;;;;;;4.43;0.90;;;13.90;99.90;;;;;;5018477;28;20075;-71
2023/09/19 04:45:23;;;;;;;1.08;0.60;;;14.00;99.90;;;;;;5020814;28;20191;-70
2023/09/19 04:47:48;;;;;;;3.08;0.95;;;14.00;99.90;;;;;;5022662;28;20643;-70
2023/09/19 04:50:14;;;;;;;2.65;0.90;;;14.00;99.90;;;;;;5018889;28;20041;-70
2023/09/19 04:52:42;;;;;;;2.80;1.25;;;14.00;99.90;;;;;;5020875;28;20140;-70
2023/09/19 04:55:10;;;;;;;3.38;0.80;;;14.00;99.90;;;;;;5022020;28;20048;-70
2023/09/19 04:57:36;;;;;;;4.68;0.68;;;14.10;99.90;;;;;;5005648;28;20057;-70
2023/09/19 05:00:06;;;;;;;4.30;0.90;;;14.10;99.90;;;;;;4999767;28;20041;-70
2023/09/19 05:02:34;;;;;;;6.50;0.85;;;14.10;99.90;;;;;;5021609;28;20114;-70
2023/09/19 05:05:00;;;;;;;3.17;0.77;;;14.10;99.90;;;;;;5022862;28;20048;-70
2023/09/19 05:07:26;;;;;;;2.20;0.77;;;14.10;99.90;;;;;;5021296;28;20049;-71
2023/09/19 05:09:51;;;;;;;4.40;0.75;;;14.10;99.90;;;;;;5020668;28;20772;-70
2023/09/19 05:12:19;;;;;;;3.75;1.20;;;14.10;99.90;;;;;;5019724;28;20040;-70
2023/09/19 05:14:45;;;;;;;4.38;0.95;;;14.10;99.90;;;;;;5022024;28;20049;-70
2023/09/19 05:17:10;;;;;;;3.30;0.95;;;14.10;99.90;;;;;;5020435;28;20038;-70
2023/09/19 05:19:36;;;;;;;5.53;1.23;;;14.10;99.90;;;;;;5019928;28;20064;-71
2023/09/19 05:22:04;;;;;;;6.65;0.90;;;14.00;99.90;;;;;;5018189;28;20064;-70
2023/09/19 05:24:30;;;;;;;3.40;0.70;;;14.00;99.90;;;;;;5019199;28;20041;-70
2023/09/19 05:26:56;;;;;;;5.40;0.82;;;14.10;99.90;;;;;;5023716;28;20037;-70
2023/09/19 05:29:22;;;;;;;6.53;1.20;;;14.10;99.90;;;;;;5021904;28;20103;-70
2023/09/19 05:31:49;;;;;;;3.97;1.30;;;14.00;99.90;;;;;;5022060;28;20399;-71
2023/09/19 05:34:15;;;;;;;4.13;1.00;;;14.00;99.90;;;;;;5006791;28;20156;-70
2023/09/19 05:36:41;;;;;;;3.55;0.70;;;14.00;99.90;;;;;;5020138;28;20437;-70
2023/09/19 05:39:09;;;;;;;8.73;1.02;;;14.00;99.90;;;;;;5020166;28;20530;-70
2023/09/19 05:41:36;;;;;;;3.13;0.90;;;14.00;99.90;;;;;;5015953;28;20040;-70
2023/09/19 05:44:03;;;;;;;5.35;0.90;;;13.90;99.90;;;;;;5020826;28;20049;-70
2023/09/19 05:46:29;;;;;;;4.78;0.93;;;14.00;99.90;;;;;;5020420;28;20095;-70
2023/09/19 05:48:58;;;;;;;8.02;1.50;;;14.00;99.90;;;;;;5021602;28;20675;-70
2023/09/19 05:51:25;;;;;;;5.20;1.13;;;14.00;99.90;;;;;;5018459;28;20033;-70
2023/09/19 05:53:50;;;;;;;5.22;0.95;;;13.90;99.90;;;;;;5020489;28;20490;-71
2023/09/19 05:56:18;;;;;;;3.03;0.65;;;13.90;99.90;;;;;;5019311;28;20050;-70
2023/09/19 05:58:44;;;;;;;6.70;1.00;;;14.00;99.90;;;;;;5002886;28;20033;-70
2023/09/19 06:01:10;;;;;;;6.70;1.00;;;14.00;99.90;;;;;;5019781;28;20044;-70
2023/09/19 06:03:35;;;;;;;3.30;0.85;;;14.00;99.90;;;;;;5019527;28;20168;-70
2023/09/19 06:06:02;;;;;;;7.72;1.23;;;13.90;99.90;;;;;;5024106;28;20044;-71
2023/09/19 06:08:28;;;;;;;3.00;0.90;;;13.90;99.90;;;;;;5020916;28;20043;-70
2023/09/19 06:10:54;;;;;;;3.78;0.63;;;13.90;99.90;;;;;;5023960;28;20545;-70
2023/09/19 06:13:20;;;;;;;5.78;0.90;;;13.80;99.90;;;;;;5021337;28;20042;-70
2023/09/19 06:15:47;;;;;;;6.40;0.82;;;13.80;99.90;;;;;;5020694;28;20056;-70
2023/09/19 06:18:19;;;;;;;5.25;0.73;;;13.80;99.90;;;;;;5023534;28;20033;-70
2023/09/19 06:20:50;;;;;;;7.38;0.77;;;13.80;99.90;;;;;;5017586;28;20134;-70
2023/09/19 06:23:17;;;;;;;2.53;0.63;;;13.70;99.90;;;;;;5017086;28;20034;-70
2023/09/19 06:25:43;;;;;;;3.58;0.95;;;13.80;99.90;;;;;;5003954;28;20128;-70
2023/09/19 06:28:12;;;;;;;1.92;0.70;;;13.70;99.90;;;;;;5021262;28;20053;-70
2023/09/19 06:30:40;;;;;;;3.15;0.80;;;13.70;99.90;;;;;;5020490;28;20138;-70
2023/09/19 06:33:06;;;;;;;1.70;0.65;;;13.70;99.90;;;;;;5018919;28;20505;-70
2023/09/19 06:35:33;;;;;;;4.55;1.05;;;13.80;99.90;;;;;;5016905;28;20084;-70
2023/09/19 06:38:02;;;;;;;3.90;1.00;;;13.80;99.90;;;;;;5015651;28;20068;-70
2023/09/19 06:40:30;;;;;;;3.67;0.85;;;13.80;99.90;;;;;;5015260;28;20033;-70
2023/09/19 06:42:57;;;;;;;5.07;1.38;;;13.80;99.90;;;;;;5036158;28;20088;-70
2023/09/19 06:45:22;;;;;;;5.93;0.80;;;13.80;99.90;;;;;;5035323;28;20080;-70
2023/09/19 06:47:50;;;;;;;5.95;0.95;;;13.80;99.90;;;;;;5021624;28;20421;-70
2023/09/19 06:50:21;;;;;;;4.18;0.60;;;13.80;99.90;;;;;;5020326;28;20127;-70
2023/09/19 06:52:49;;;;;;;1.98;0.60;;;13.70;99.90;;;;;;5018749;28;20491;-70
2023/09/19 06:55:16;;;;;;;6.28;0.70;;;13.70;99.90;;;;;;5023028;28;20304;-70
2023/09/19 06:57:43;;;;;;;2.58;0.93;;;13.70;99.90;;;;;;5023343;28;20038;-70
2023/09/19 07:00:18;;;;;;;4.18;0.60;;;13.80;99.90;;;;;;5024028;28;20029;-70
2023/09/19 07:02:43;;;;;;;5.40;1.00;;;13.70;99.90;;;;;;5024293;28;20124;-70
2023/09/19 07:05:09;;;;;;;4.93;2.00;;;13.80;99.90;;;;;;5019352;28;20113;-70
2023/09/19 07:07:35;;;;;;;6.15;1.38;;;13.80;99.90;;;;;;5005173;28;20079;-70
2023/09/19 07:10:02;;;;;;;9.05;1.10;;;13.80;99.90;;;;;;5027419;28;20088;-70
2023/09/19 07:12:28;;;;;;;7.10;1.17;;;13.90;99.90;;;;;;5023771;28;21782;-70
2023/09/19 07:14:54;;;;;;;4.97;0.90;;;13.90;99.90;;;;;;5022785;28;20037;-70
2023/09/19 07:17:21;;;;;;;6.28;0.90;;;14.00;99.90;;;;;;5023199;28;20069;-70
2023/09/19 07:19:48;;;;;;;5.18;0.90;;;14.00;99.90;;;;;;5025511;28;20112;-70
2023/09/19 07:22:13;;;;;;;4.00;0.80;;;14.00;99.90;;;;;;5021447;28;20046;-70
2023/09/19 07:24:39;;;;;;;4.03;0.80;;;14.10;99.90;;;;;;5017716;28;20114;-70
2023/09/19 07:27:05;;;;;;;6.35;1.20;;;14.20;99.90;;;;;;5023866;28;20522;-70
2023/09/19 07:29:30;;;;;;;2.90;1.10;;;14.20;99.90;;;;;;5023592;28;20412;-70
2023/09/19 07:31:56;;;;;;;5.88;1.10;;;14.30;99.90;;;;;;5004282;28;20041;-69
2023/09/19 07:34:22;;;;;;;3.20;1.13;;;14.30;99.90;;;;;;5005668;28;20124;-71
2023/09/19 07:36:48;;;;;;;4.05;0.98;;;14.30;99.90;;;;;;5000212;28;20449;-71
2023/09/19 07:39:14;;;;;;;2.90;0.77;;;14.40;99.90;;;;;;5023192;28;20112;-71
2023/09/19 07:41:39;;;;;;;3.35;0.85;;;14.40;99.90;;;;;;5017862;28;20100;-71
2023/09/19 07:44:05;;;;;;;9.82;0.88;;;14.40;99.90;;;;;;5017949;28;20036;-71
2023/09/19 07:46:31;;;;;;;3.60;0.75;;;14.40;99.90;;;;;;5022596;28;20068;-71
2023/09/19 07:48:57;;;;;;;6.03;1.15;;;14.40;99.90;;;;;;5021351;28;20051;-71
2023/09/19 07:51:23;;;;;;;3.67;0.60;;;14.50;99.90;;;;;;5020554;28;20064;-72
2023/09/19 07:53:48;;;;;;;4.80;0.88;;;14.50;99.90;;;;;;5018952;28;20844;-71
2023/09/19 07:56:14;;;;;;;4.15;0.98;;;14.50;99.90;;;;;;5024284;28;20048;-71
2023/09/19 07:58:42;;;;;;;2.75;0.82;;;14.50;99.90;;;;;;5022736;28;20045;-71
2023/09/19 08:01:10;;;;;;;3.90;0.85;;;14.50;99.90;;;;;;5004312;28;20402;-71
2023/09/19 08:03:40;;;;;;;3.00;0.60;;;14.50;99.90;;;;;;5017314;28;20439;-71
2023/09/19 08:06:06;;;;;;;2.78;1.33;;;14.60;99.90;;;;;;5003265;28;20037;-71
2023/09/19 08:08:36;;;;;;;3.50;0.90;;;14.60;99.90;;;;;;5002663;28;20037;-71
2023/09/19 08:11:10;;;;;;;2.35;0.70;;;14.70;99.90;;;;;;5036422;28;20095;-70
2023/09/19 08:13:36;;;;;;;2.40;0.68;;;14.70;99.90;;;;;;5016627;28;20115;-71
2023/09/19 08:16:02;;;;;;;5.40;1.23;;;14.70;99.90;;;;;;5019407;28;20053;-71
2023/09/19 08:18:30;;;;;;;2.13;0.85;;;14.80;99.90;;;;;;5023671;28;20083;-71
2023/09/19 08:20:58;;;;;;;1.30;0.60;;;14.80;99.90;;;;;;5025217;28;21922;-71
2023/09/19 08:23:24;;;;;;;4.50;0.90;;;14.80;99.90;;;;;;5025291;28;20045;-71
2023/09/19 08:25:50;;;;;;;5.13;1.02;;;14.80;99.90;;;;;;5019786;28;20127;-71
2023/09/19 08:28:19;;;;;;;6.05;1.00;;;14.90;99.90;;;;;;5021451;28;20041;-69
2023/09/19 08:30:45;;;;;;;4.68;0.98;;;14.90;99.90;;;;;;5022313;28;20095;-71
2023/09/19 08:33:11;;;;;;;3.38;0.73;;;15.00;99.90;;;;;;5017667;28;20111;-71
2023/09/19 08:35:39;;;;;;;2.80;0.98;;;15.00;99.90;;;;;;5020351;28;20495;-71
2023/09/19 08:38:06;;;;;;;3.40;1.10;;;15.10;99.90;;;;;;5004446;28;20148;-71
2023/09/19 08:40:33;;;;;;;3.38;0.88;;;15.10;99.90;;;;;;5029338;28;20485;-71
2023/09/19 08:43:00;;;;;;;5.13;1.23;;;15.20;99.90;;;;;;5013772;28;20041;-71
2023/09/19 08:45:28;;;;;;;6.57;0.93;;;15.20;99.90;;;;;;5013751;28;20045;-71
2023/09/19 08:48:06;;;;;;;9.40;1.38;;;15.20;99.90;;;;;;5019513;28;20525;-71
2023/09/19 08:50:37;;;;;;;3.67;1.02;;;15.30;99.90;;;;;;5016835;28;20339;-71
2023/09/19 08:53:13;;;;;;;5.88;1.17;;;15.30;99.90;;;;;;5016064;28;20585;-72
2023/09/19 08:55:41;;;;;;;10.88;1.58;;;15.40;99.90;;;;;;5012169;28;20491;-72
2023/09/19 08:58:10;;;;;;;7.95;1.17;;;15.40;99.90;;;;;;4996937;28;20064;-72
2023/09/19 09:00:37;;;;;;;2.15;0.82;;;15.50;99.90;;;;;;5018483;28;20065;-71
2023/09/19 09:03:04;;;;;;;4.80;1.10;;;15.50;99.90;;;;;;5019224;28;20491;-71
2023/09/19 09:05:32;;;;;;;5.35;0.95;;;15.50;99.90;;;;;;5023592;28;20038;-71
2023/09/19 09:07:59;;;;;;;4.43;1.30;;;15.60;99.90;;;;;;5019662;28;20033;-71
2023/09/19 09:10:25;;;;;;;9.63;1.23;;;15.60;99.90;;;;;;5038480;28;20139;-71
2023/09/19 09:12:52;;;;;;;3.80;0.90;;;15.70;99.90;;;;;;5023202;28;20033;-72
2023/09/19 09:15:23;;;;;;;5.22;0.90;;;15.70;99.90;;;;;;5023488;28;20440;-72
2023/09/19 09:17:50;;;;;;;5.30;1.10;;;15.80;99.90;;;;;;5018230;28;20037;-72
2023/09/19 09:20:18;;;;;;;3.70;0.80;;;15.80;99.90;;;;;;5023463;28;20052;-72
2023/09/19 09:23:04;;;;;;;5.50;1.27;;;15.90;99.90;;;;;;5020043;28;20056;-72
2023/09/19 09:25:50;;;;;;;;;;;15.90;99.90;;;;;;5020822;28;20041;-71
2023/09/19 09:28:21;;;;;;;4.70;1.20;;;16.00;99.90;;;;;;5020751;28;20382;-72
2023/09/19 09:30:47;;;;;;;2.45;0.98;;;16.10;99.90;;;;;;5017937;28;20296;-71
2023/09/19 09:33:15;;;;;;;8.40;0.98;;;16.10;99.90;;;;;;5018193;28;20045;-72
2023/09/19 09:35:59;;;;;;;6.15;1.05;;;16.20;99.90;;;;;;4999011;28;20411;-71
2023/09/19 09:38:32;;;;;;;3.15;0.88;;;16.30;99.90;;;;;;5019571;28;20128;-71
2023/09/19 09:41:07;;;;;;;7.78;1.48;;;16.30;99.90;;;;;;5014605;28;20033;-71
2023/09/19 09:43:35;;;;;;;5.50;1.00;;;16.30;99.90;;;;;;5014427;28;20037;-71
2023/09/19 09:49:19;;;;;;;4.70;0.93;;;16.40;99.90;;;;;;5036041;28;20060;-72
2023/09/19 09:51:57;;;;;;;6.13;0.93;;;16.40;99.90;;;;;;5019091;28;20041;-71
2023/09/19 09:54:24;;;;;;;6.20;1.00;;;16.50;99.90;;;;;;5020865;28;20124;-71
2023/09/19 09:57:20;;;;;;;3.75;0.77;;;16.50;99.90;;;;;;5001949;28;20088;-70
2023/09/19 09:59:53;;;;;;;4.13;0.63;;;16.50;99.90;;;;;;5018687;28;20041;-71
2023/09/19 10:02:24;;;;;;;6.40;1.00;;;16.60;99.90;;;;;;5019151;28;20407;-71
2023/09/19 10:04:52;;;;;;;4.82;1.40;;;16.70;99.90;;;;;;5001674;28;20048;-70
2023/09/19 10:07:32;;;;;;;3.33;0.93;;;16.70;99.90;;;;;;5018006;28;20139;-71
2023/09/19 10:10:05;;;;;;;4.00;0.70;;;16.80;99.90;;;;;;5001953;28;20049;-72
2023/09/19 10:12:33;;;;;;;5.93;1.08;;;16.70;99.90;;;;;;5016601;28;20046;-71
2023/09/19 10:15:02;;;;;;;7.00;0.95;;;16.80;99.90;;;;;;5018453;28;20056;-71
2023/09/19 10:17:31;;;;;;;4.93;1.23;;;16.80;99.90;;;;;;5019169;28;20033;-71
2023/09/19 10:19:58;;;;;;;5.85;1.05;;;16.80;99.90;;;;;;5018310;28;20655;-71
2023/09/19 10:22:26;;;;;;;5.03;1.20;;;16.90;99.90;;;;;;5036171;28;20041;-71
2023/09/19 10:24:53;;;;;;;5.47;1.20;;;16.90;99.90;;;;;;5022033;28;20037;-71
2023/09/19 10:27:26;;;;;;;5.88;1.00;;;16.90;99.90;;;;;;5041953;28;20053;-71
2023/09/19 10:29:55;;;;;;;5.00;1.15;;;16.90;99.90;;;;;;5025413;28;20538;-71
2023/09/19 10:32:23;;;;;;;4.53;1.30;;;17.00;99.90;;;;;;5026249;28;20037;-71
2023/09/19 10:34:49;;;;;;;5.38;1.17;;;17.00;99.90;;;;;;5025235;28;20041;-70
2023/09/19 10:37:22;;;;;;;6.40;1.05;;;17.00;99.90;;;;;;5039297;28;20338;-71
2023/09/19 10:39:49;;;;;;;6.03;1.50;;;17.10;99.90;;;;;;5026607;28;20041;-71
2023/09/19 10:42:20;;;;;;;5.03;1.50;;;17.10;99.90;;;;;;5006786;28;20033;-71
2023/09/19 10:44:53;;;;;;;6.28;1.13;;;17.10;99.90;;;;;;5019579;28;20163;-71
2023/09/19 10:47:20;;;;;;;8.30;1.35;;;17.20;99.90;;;;;;5005442;28;20033;-71
2023/09/19 10:49:46;;;;;;;3.88;1.00;;;17.30;99.90;;;;;;5019107;28;20053;-71
2023/09/19 10:52:19;;;;;;;3.22;1.20;;;17.20;99.90;;;;;;5023148;28;20049;-71
2023/09/19 10:54:54;;;;;;;5.50;1.73;;;17.20;99.90;;;;;;5019915;28;20486;-71
2023/09/19 10:57:30;;;;;;;6.30;1.00;;;17.10;99.90;;;;;;5007008;28;20073;-71
2023/09/19 11:00:23;;;;;;;9.93;1.67;;;17.20;99.90;;;;;;5022843;28;20049;-71
2023/09/19 11:03:11;;;;;;;3.35;1.13;;;17.20;99.90;;;;;;5036557;28;20449;-71
2023/09/19 11:05:40;;;;;;;5.80;1.42;;;17.30;99.90;;;;;;5020875;28;20034;-71
2023/09/19 11:08:08;;;;;;;6.80;1.10;;;17.20;99.90;;;;;;5021607;28;20166;-72
2023/09/19 11:10:54;;;;;;;3.55;0.93;;;17.20;99.90;;;;;;5023172;28;20049;-71
2023/09/19 11:13:36;;;;;;;4.47;1.23;;;17.30;99.90;;;;;;5020174;28;20450;-71
2023/09/19 11:16:04;;;;;;;6.65;1.20;;;17.30;99.90;;;;;;5022540;28;21772;-71
2023/09/19 11:18:42;;;;;;;3.65;0.88;;;17.40;99.90;;;;;;5020792;28;20104;-72
2023/09/19 11:21:34;;;;;;;2.78;0.90;;;17.40;99.90;;;;;;5023092;28;20033;-71
2023/09/19 11:24:22;;;;;;;2.80;0.85;;;17.40;99.90;;;;;;5022635;28;20037;-72
2023/09/19 11:26:48;;;;;;;4.45;1.25;;;17.50;99.90;;;;;;5020324;28;20621;-71
2023/09/19 11:29:31;;;;;;;4.13;1.13;;;17.50;99.90;;;;;;5021434;28;20073;-71
2023/09/19 11:31:59;;;;;;;6.47;1.10;;;17.50;99.90;;;;;;5025180;28;20116;-71
2023/09/19 11:34:37;;;;;;;7.93;1.40;;;17.60;99.90;;;;;;5002782;28;20052;-71
2023/09/19 11:37:09;;;;;;;5.90;1.00;;;17.60;99.90;;;;;;5019177;28;20057;-71
2023/09/19 11:39:35;;;;;;;3.92;1.35;;;17.60;99.90;;;;;;5024204;28;20041;-71
2023/09/19 11:42:00;;;;;;;6.13;1.20;;;17.70;99.90;;;;;;5005784;28;20410;-71
2023/09/19 11:44:26;;;;;;;5.70;1.00;;;17.70;99.90;;;;;;5020864;28;21524;-71
2023/09/19 11:46:54;;;;;;;8.13;1.05;;;17.70;99.90;;;;;;5038771;28;20094;-71
2023/09/19 11:49:36;;;;;;;5.20;1.17;;;17.70;99.90;;;;;;5022285;28;20045;-71
2023/09/19 11:52:08;;;;;;;6.65;1.73;;;17.70;99.90;;;;;;5020087;28;20033;-71
2023/09/19 11:54:36;;;;;;;5.20;1.10;;;17.70;99.90;;;;;;5021093;28;20052;-71
2023/09/19 11:57:03;;;;;;;9.25;1.38;;;17.70;99.90;;;;;;5004833;28;20061;-71
2023/09/19 11:59:30;;;;;;;3.72;1.23;;;17.70;99.90;;;;;;5022673;28;20068;-71
2023/09/19 12:02:05;;;;;;;4.13;0.70;;;17.70;99.90;;;;;;5022223;28;20087;-71
2023/09/19 12:04:39;;;;;;;2.40;0.57;;;17.70;99.90;;;;;;5019317;28;20042;-71
2023/09/19 12:07:10;;;;;;;2.75;0.80;;;17.70;99.90;;;;;;5033154;28;20133;-72
2023/09/19 12:09:41;;;;;;;4.80;0.80;;;17.70;99.90;;;;;;5038743;28;20088;-71
2023/09/19 12:12:07;;;;;;;5.57;1.08;;;17.60;99.90;;;;;;5005763;28;20506;-71
2023/09/19 12:14:33;;;;;;;4.38;0.73;;;17.60;99.90;;;;;;5020022;28;20055;-71
2023/09/19 12:17:01;;;;;;;5.43;0.80;;;17.70;99.90;;;;;;5020323;28;20548;-71
2023/09/19 12:19:27;;;;;;;4.80;0.85;;;17.70;99.90;;;;;;5020559;28;20049;-71
2023/09/19 12:21:57;;;;;;;2.05;0.80;;;17.60;99.90;;;;;;5019924;28;20116;-71
2023/09/19 12:24:26;;;;;;;3.67;1.25;;;17.70;99.90;;;;;;5021836;28;20159;-71
2023/09/19 12:26:52;;;;;;;2.35;0.90;;;17.60;99.90;;;;;;5021493;28;20045;-71
2023/09/19 12:29:21;;;;;;;4.70;1.05;;;17.60;99.90;;;;;;5021862;28;20041;-71
2023/09/19 12:31:57;;;;;;;4.22;0.98;;;17.60;99.90;;;;;;5003648;28;20034;-71
2023/09/19 12:34:34;;;;;;;5.50;1.00;;;17.50;99.90;;;;;;5019551;28;20045;-71
2023/09/19 12:37:11;;;;;;;3.22;0.70;;;17.50;99.90;;;;;;5015656;28;20875;-72
2023/09/19 12:39:38;;;;;;;3.60;1.00;;;17.40;99.90;;;;;;5020391;28;20037;-71
2023/09/19 12:42:08;;;;;;;4.43;0.73;;;17.40;99.90;;;;;;5019044;28;20120;-71
2023/09/19 12:44:35;;;;;;;4.90;1.13;;;17.40;99.90;;;;;;5021559;28;20040;-71
2023/09/19 12:47:09;;;;;;;6.22;0.95;;;17.40;99.90;;;;;;5019807;28;20774;-71
2023/09/19 12:49:35;;;;;;;2.58;0.70;;;17.40;99.90;;;;;;5018999;28;20041;-71
2023/09/19 12:52:00;;;;;;;3.67;0.80;;;17.40;99.90;;;;;;5020168;28;20037;-71
2023/09/19 12:54:38;;;;;;;2.25;0.80;;;17.40;99.90;;;;;;5021470;28;20049;-71
2023/09/19 12:57:04;;;;;;;5.82;1.65;;;17.40;99.90;;;;;;5018593;28;20048;-71
2023/09/19 12:59:32;;;;;;;3.97;1.00;;;17.40;99.90;;;;;;5020164;28;20049;-71
2023/09/19 13:02:07;;;;;;;9.30;0.93;;;17.40;99.90;;;;;;5019098;28;20064;-71